createdAt,value
2022-12-11T00:02:11.611Z,24.00
2022-12-11T00:04:38.150Z,19.00
2022-12-11T00:07:04.654Z,26.00
2022-12-11T00:09:31.116Z,24.50
2022-12-11T00:11:57.609Z,23.00
2022-12-11T00:14:24.033Z,26.00
2022-12-11T00:16:50.590Z,27.00
2022-12-11T00:19:17.105Z,23.20
2022-12-11T00:21:43.588Z,30.00
2022-12-11T00:24:10.577Z,33.40
2022-12-11T00:26:37.211Z,31.50
2022-12-11T00:29:03.809Z,39.60
2022-12-11T00:31:30.358Z,29.40
2022-12-11T00:33:56.850Z,34.80
2022-12-11T00:36:24.643Z,22.50
2022-12-11T00:38:51.603Z,23.00
2022-12-11T00:41:18.487Z,21.50
2022-12-11T00:43:44.926Z,18.40
2022-12-11T00:46:11.785Z,23.50
2022-12-11T00:48:38.793Z,17.25
2022-12-11T00:51:05.456Z,22.00
2022-12-11T00:53:31.900Z,22.60
2022-12-11T00:55:58.364Z,25.20
2022-12-11T00:58:24.960Z,21.20
2022-12-11T01:00:52.066Z,17.50
2022-12-11T01:03:19.000Z,27.00
2022-12-11T01:05:55.007Z,22.75
2022-12-11T01:08:21.596Z,25.60
2022-12-11T01:10:48.244Z,18.00
2022-12-11T01:13:14.809Z,17.60
2022-12-11T01:15:42.865Z,21.00
2022-12-11T01:18:10.434Z,18.00
2022-12-11T01:20:37.778Z,23.00
2022-12-11T01:23:04.223Z,16.00
2022-12-11T01:25:30.730Z,23.00
2022-12-11T01:27:57.258Z,19.75
2022-12-11T01:30:24.836Z,24.50
2022-12-11T01:32:51.415Z,24.00
2022-12-11T01:35:18.289Z,21.00
2022-12-11T01:37:45.216Z,23.40
2022-12-11T01:40:13.256Z,23.75
2022-12-11T01:42:39.865Z,23.50
2022-12-11T01:45:15.764Z,18.00
2022-12-11T01:47:42.276Z,28.00
2022-12-11T01:50:08.858Z,15.60
2022-12-11T01:52:35.819Z,21.00
2022-12-11T01:55:02.534Z,18.80
2022-12-11T01:57:29.761Z,16.60
2022-12-11T01:59:56.325Z,23.50
2022-12-11T02:02:26.406Z,15.50
2022-12-11T02:04:52.864Z,15.20
2022-12-11T02:07:19.434Z,22.50
2022-12-11T02:09:47.087Z,15.60
2022-12-11T02:12:25.460Z,15.00
2022-12-11T02:15:11.547Z,18.00
2022-12-11T02:17:44.303Z,23.40
2022-12-11T02:20:26.702Z,16.60
2022-12-11T02:22:59.093Z,21.00
2022-12-11T02:25:41.830Z,19.40
2022-12-11T02:28:20.337Z,19.60
2022-12-11T02:30:49.768Z,18.50
2022-12-11T02:33:16.700Z,16.00
2022-12-11T02:35:44.193Z,18.40
2022-12-11T02:38:25.373Z,19.00
2022-12-11T02:40:53.499Z,15.00
2022-12-11T02:43:20.999Z,15.00
2022-12-11T02:45:48.648Z,19.20
2022-12-11T02:48:16.349Z,21.00
2022-12-11T02:50:44.311Z,20.20
2022-12-11T02:53:12.347Z,17.00
2022-12-11T02:55:40.624Z,15.80
2022-12-11T02:58:14.606Z,16.00
2022-12-11T03:00:41.106Z,17.80
2022-12-11T03:03:07.856Z,14.00
2022-12-11T03:05:34.425Z,17.80
2022-12-11T03:08:01.916Z,16.25
2022-12-11T03:10:28.573Z,16.00
2022-12-11T03:12:56.997Z,17.00
2022-12-11T03:15:26.569Z,18.75
2022-12-11T03:18:01.993Z,15.60
2022-12-11T03:20:29.758Z,15.75
2022-12-11T03:23:02.803Z,15.80
2022-12-11T03:25:34.551Z,16.00
2022-12-11T03:28:12.981Z,18.00
2022-12-11T03:30:40.234Z,16.75
2022-12-11T03:33:12.105Z,17.00
2022-12-11T03:35:48.765Z,21.00
2022-12-11T03:38:27.966Z,16.00
2022-12-11T03:40:56.428Z,20.40
2022-12-11T03:43:23.303Z,16.50
2022-12-11T03:45:51.896Z,18.00
2022-12-11T03:48:18.846Z,15.60
2022-12-11T03:50:46.150Z,20.00
2022-12-11T03:53:12.925Z,21.00
2022-12-11T03:55:39.741Z,21.40
2022-12-11T03:58:06.351Z,20.40
2022-12-11T04:00:33.176Z,17.80
2022-12-11T04:03:15.137Z,22.00
2022-12-11T04:05:46.396Z,20.25
2022-12-11T04:08:13.458Z,21.00
2022-12-11T04:10:40.808Z,23.00
2022-12-11T04:13:07.595Z,37.80
2022-12-11T04:15:34.340Z,26.00
2022-12-11T04:18:19.449Z,21.75
2022-12-11T04:21:04.543Z,24.50
2022-12-11T04:23:49.454Z,20.40
2022-12-11T04:26:17.715Z,25.00
2022-12-11T04:28:45.039Z,29.25
2022-12-11T04:31:15.849Z,26.20
2022-12-11T04:33:42.765Z,19.00
2022-12-11T04:36:10.216Z,24.80
2022-12-11T04:38:38.597Z,25.50
2022-12-11T04:41:06.731Z,23.00
2022-12-11T04:43:33.221Z,22.00
2022-12-11T04:46:02.682Z,22.00
2022-12-11T04:48:29.218Z,22.33
2022-12-11T04:50:55.664Z,24.50
2022-12-11T04:53:22.119Z,28.00
2022-12-11T04:55:48.581Z,26.00
2022-12-11T04:58:15.038Z,21.00
2022-12-11T05:00:42.009Z,18.00
2022-12-11T05:03:08.845Z,29.00
2022-12-11T05:05:35.383Z,26.50
2022-12-11T05:08:02.159Z,22.00
2022-12-11T05:10:28.665Z,21.00
2022-12-11T05:12:55.096Z,22.00
2022-12-11T05:15:21.552Z,26.50
2022-12-11T05:17:48.143Z,23.25
2022-12-11T05:20:14.576Z,22.00
2022-12-11T05:22:41.035Z,29.00
2022-12-11T05:25:08.006Z,20.00
2022-12-11T05:27:34.615Z,20.40
2022-12-11T05:30:01.025Z,20.00
2022-12-11T05:32:27.494Z,21.25
2022-12-11T05:34:53.949Z,19.20
2022-12-11T05:37:21.066Z,21.00
2022-12-11T05:39:47.537Z,22.60
2022-12-11T05:42:13.981Z,23.00
2022-12-11T05:44:40.444Z,19.20
2022-12-11T05:47:06.955Z,19.50
2022-12-11T05:49:33.373Z,23.00
2022-12-11T05:51:59.929Z,17.40
2022-12-11T05:54:26.443Z,21.20
2022-12-11T05:56:52.861Z,26.50
2022-12-11T05:59:19.847Z,27.50
2022-12-11T06:01:46.542Z,22.00
2022-12-11T06:04:13.337Z,23.25
2022-12-11T06:06:40.681Z,21.00
2022-12-11T06:09:07.375Z,22.75
2022-12-11T06:11:34.318Z,24.00
2022-12-11T06:14:01.880Z,20.00
2022-12-11T06:16:28.462Z,21.50
2022-12-11T06:18:58.222Z,21.50
2022-12-11T06:21:25.020Z,25.00
2022-12-11T06:23:52.660Z,25.40
2022-12-11T06:26:19.577Z,20.00
2022-12-11T06:28:46.230Z,19.50
2022-12-11T06:31:12.816Z,21.50
2022-12-11T06:33:39.726Z,53.75
2022-12-11T06:36:07.875Z,28.00
2022-12-11T06:38:34.491Z,31.50
2022-12-11T06:41:02.731Z,32.60
2022-12-11T06:43:29.309Z,26.40
2022-12-11T06:46:00.584Z,31.50
2022-12-11T06:48:30.105Z,36.50
2022-12-11T06:50:56.574Z,28.60
2022-12-11T06:53:23.028Z,23.00
2022-12-11T06:55:49.560Z,24.20
2022-12-11T06:58:16.711Z,24.20
2022-12-11T07:00:43.192Z,30.00
2022-12-11T07:03:09.987Z,27.00
2022-12-11T07:05:36.459Z,21.40
2022-12-11T07:08:02.971Z,24.00
2022-12-11T07:10:29.541Z,28.67
2022-12-11T07:12:56.066Z,28.80
2022-12-11T07:15:22.625Z,28.00
2022-12-11T07:17:49.083Z,23.50
2022-12-11T07:20:15.714Z,27.40
2022-12-11T07:22:46.393Z,30.00
2022-12-11T07:25:13.579Z,29.50
2022-12-11T07:27:40.204Z,23.00
2022-12-11T07:30:07.060Z,29.00
2022-12-11T07:32:33.633Z,30.00
2022-12-11T07:35:00.327Z,29.20
2022-12-11T07:37:26.918Z,24.00
2022-12-11T07:39:53.464Z,28.50
2022-12-11T07:42:19.918Z,24.80
2022-12-11T07:44:46.395Z,33.75
2022-12-11T07:47:12.877Z,26.50
2022-12-11T07:49:39.451Z,30.60
2022-12-11T07:52:05.858Z,33.50
2022-12-11T07:54:32.349Z,33.00
2022-12-11T07:56:58.833Z,32.50
2022-12-11T07:59:25.356Z,34.75
2022-12-11T08:01:51.809Z,26.80
2022-12-11T08:04:18.278Z,28.33
2022-12-11T08:06:44.797Z,27.50
2022-12-11T08:09:17.489Z,27.60
2022-12-11T08:11:48.411Z,29.25
2022-12-11T08:14:14.861Z,35.80
2022-12-11T08:16:43.274Z,29.25
2022-12-11T08:19:11.377Z,38.60
2022-12-11T08:21:38.368Z,34.00
2022-12-11T08:24:04.903Z,32.50
2022-12-11T08:26:31.891Z,34.75
2022-12-11T08:28:58.696Z,36.00
2022-12-11T08:31:25.326Z,38.00
2022-12-11T08:33:51.876Z,34.25
2022-12-11T08:36:20.086Z,26.20
2022-12-11T08:38:47.150Z,36.00
2022-12-11T08:41:15.112Z,33.20
2022-12-11T08:43:41.901Z,32.00
2022-12-11T08:46:09.065Z,31.75
2022-12-11T08:48:35.946Z,35.50
2022-12-11T08:51:04.058Z,23.00
2022-12-11T08:53:30.558Z,27.60
2022-12-11T08:56:07.652Z,29.80
2022-12-11T08:58:34.130Z,26.40
2022-12-11T09:01:00.681Z,27.00
2022-12-11T09:03:27.184Z,27.00
2022-12-11T09:05:53.651Z,27.80
2022-12-11T09:08:20.244Z,28.25
2022-12-11T09:10:46.734Z,25.20
2022-12-11T09:13:13.254Z,23.00
2022-12-11T09:15:42.833Z,25.00
2022-12-11T09:18:09.527Z,32.60
2022-12-11T09:20:35.965Z,30.40
2022-12-11T09:23:02.918Z,32.75
2022-12-11T09:25:29.456Z,34.75
2022-12-11T09:27:55.954Z,33.00
2022-12-11T09:30:22.499Z,35.80
2022-12-11T09:32:48.968Z,26.20
2022-12-11T09:35:15.428Z,35.25
2022-12-11T09:37:41.903Z,35.75
2022-12-11T09:40:10.079Z,34.00
2022-12-11T09:42:39.332Z,33.25
2022-12-11T09:45:07.663Z,30.25
2022-12-11T09:47:39.894Z,34.50
2022-12-11T09:50:13.947Z,26.75
2022-12-11T09:52:40.429Z,39.00
2022-12-11T09:55:14.916Z,38.50
2022-12-11T09:57:50.390Z,33.00
2022-12-11T10:00:23.646Z,41.50
2022-12-11T10:02:50.131Z,38.67
2022-12-11T10:05:21.614Z,36.60
2022-12-11T10:07:53.592Z,30.20
2022-12-11T10:10:38.898Z,35.00
2022-12-11T10:13:25.619Z,35.50
2022-12-11T10:16:00.202Z,49.75
2022-12-11T10:18:28.003Z,37.00
2022-12-11T10:20:54.936Z,38.33
2022-12-11T10:23:23.464Z,34.80
2022-12-11T10:25:53.481Z,33.40
2022-12-11T10:28:20.510Z,28.60
2022-12-11T10:30:56.029Z,43.00
2022-12-11T10:33:37.020Z,41.25
2022-12-11T10:36:04.404Z,43.60
2022-12-11T10:38:32.073Z,38.00
2022-12-11T10:41:03.731Z,47.00
2022-12-11T10:43:34.506Z,31.50
2022-12-11T10:46:01.052Z,38.00
2022-12-11T10:48:27.606Z,34.50
2022-12-11T10:51:02.626Z,35.25
2022-12-11T10:53:29.382Z,33.00
2022-12-11T10:55:58.072Z,29.00
2022-12-11T10:58:26.121Z,39.00
2022-12-11T11:01:04.620Z,38.00
2022-12-11T11:03:32.405Z,34.67
2022-12-11T11:06:18.723Z,25.50
2022-12-11T11:08:46.748Z,23.60
2022-12-11T11:11:28.366Z,24.50
2022-12-11T11:14:11.900Z,28.00
2022-12-11T11:16:39.216Z,22.40
2022-12-11T11:19:06.524Z,24.25
2022-12-11T11:21:34.524Z,19.20
2022-12-11T11:24:01.160Z,28.25
2022-12-11T11:27:04.420Z,25.00
2022-12-11T11:29:32.029Z,20.00
2022-12-11T11:32:02.930Z,30.40
2022-12-11T11:34:30.962Z,31.60
2022-12-11T11:36:58.842Z,26.25
2022-12-11T11:39:37.775Z,32.50
2022-12-11T11:42:33.747Z,30.80
2022-12-11T11:45:06.968Z,35.00
2022-12-11T11:47:43.284Z,33.00
2022-12-11T11:50:18.403Z,18.60
2022-12-11T11:52:57.278Z,39.60
2022-12-11T11:55:35.498Z,21.00
2022-12-11T11:58:13.991Z,26.80
2022-12-11T12:00:40.480Z,26.60
2022-12-11T12:03:11.463Z,25.00
2022-12-11T12:05:57.092Z,25.00
2022-12-11T12:08:46.480Z,34.20
2022-12-11T12:11:31.543Z,28.25
2022-12-11T12:13:58.054Z,31.00
2022-12-11T12:16:52.213Z,33.00
2022-12-11T12:19:35.547Z,30.50
2022-12-11T12:22:09.168Z,35.00
2022-12-11T12:24:54.199Z,29.50
2022-12-11T12:27:52.736Z,31.40
2022-12-11T12:30:23.005Z,31.00
2022-12-11T12:32:56.359Z,28.00
2022-12-11T12:35:36.766Z,35.40
2022-12-11T12:38:10.694Z,28.00
2022-12-11T12:40:37.108Z,27.50
2022-12-11T12:43:18.917Z,34.20
2022-12-11T12:45:57.008Z,33.20
2022-12-11T12:48:25.391Z,30.00
2022-12-11T12:50:52.011Z,33.00
2022-12-11T12:53:20.756Z,34.75
2022-12-11T12:55:48.023Z,34.00
2022-12-11T12:58:33.006Z,53.50
2022-12-11T13:01:20.041Z,53.50
2022-12-11T13:03:49.789Z,68.75
2022-12-11T13:06:16.489Z,59.50
2022-12-11T13:08:45.677Z,58.80
2022-12-11T13:11:13.008Z,42.50
2022-12-11T13:14:02.696Z,39.00
2022-12-11T13:16:45.565Z,32.80
2022-12-11T13:19:21.222Z,42.00
2022-12-11T13:22:03.065Z,41.00
2022-12-11T13:24:32.298Z,37.00
2022-12-11T13:27:08.864Z,39.20
2022-12-11T13:29:36.898Z,41.80
2022-12-11T13:32:03.452Z,49.00
2022-12-11T13:34:35.165Z,37.00
2022-12-11T13:37:03.000Z,47.75
2022-12-11T13:39:31.263Z,33.60
2022-12-11T13:41:59.838Z,32.00
2022-12-11T13:44:28.086Z,27.60
2022-12-11T13:46:57.183Z,35.60
2022-12-11T13:49:29.505Z,27.60
2022-12-11T13:52:00.078Z,34.00
2022-12-11T13:54:27.916Z,28.60
2022-12-11T13:56:54.385Z,35.00
2022-12-11T13:59:24.406Z,45.00
2022-12-11T14:01:51.084Z,43.80
2022-12-11T14:04:19.813Z,33.20
2022-12-11T14:06:46.337Z,31.00
2022-12-11T14:09:17.568Z,36.60
2022-12-11T14:11:44.152Z,34.25
2022-12-11T14:14:22.359Z,33.75
2022-12-11T14:16:50.173Z,34.50
2022-12-11T14:19:18.076Z,34.40
2022-12-11T14:21:54.482Z,32.67
2022-12-11T14:24:20.935Z,34.00
2022-12-11T14:26:50.515Z,35.60
2022-12-11T14:29:43.089Z,62.20
2022-12-11T14:32:14.201Z,42.50
2022-12-11T14:34:45.237Z,36.50
2022-12-11T14:37:14.584Z,44.00
2022-12-11T14:39:44.726Z,38.50
2022-12-11T14:42:15.008Z,43.00
2022-12-11T14:44:52.077Z,36.40
2022-12-11T14:47:27.009Z,37.50
2022-12-11T14:49:53.491Z,37.25
2022-12-11T14:52:21.502Z,35.75
2022-12-11T14:54:51.444Z,37.50
2022-12-11T14:57:25.890Z,55.00
2022-12-11T14:59:53.418Z,44.60
2022-12-11T15:02:36.387Z,49.00
2022-12-11T15:05:11.736Z,38.00
2022-12-11T15:07:38.288Z,35.00
2022-12-11T15:10:05.025Z,33.00
2022-12-11T15:12:32.011Z,43.50
2022-12-11T15:15:00.856Z,35.40
2022-12-11T15:17:27.695Z,42.20
2022-12-11T15:20:03.179Z,38.00
2022-12-11T15:22:31.918Z,34.60
2022-12-11T15:24:58.807Z,32.00
2022-12-11T15:27:36.867Z,36.75
2022-12-11T15:30:19.082Z,34.75
2022-12-11T15:32:45.966Z,44.00
2022-12-11T15:35:25.961Z,33.50
2022-12-11T15:37:56.170Z,37.25
2022-12-11T15:40:22.963Z,44.00
2022-12-11T15:42:50.132Z,49.00
2022-12-11T15:45:21.227Z,46.25
2022-12-11T15:47:48.203Z,47.00
2022-12-11T15:50:18.949Z,47.33
2022-12-11T15:52:46.614Z,41.00
2022-12-11T15:55:13.361Z,48.00
2022-12-11T15:57:45.188Z,47.00
2022-12-11T16:00:15.778Z,50.67
2022-12-11T16:02:42.359Z,45.60
2022-12-11T16:05:09.596Z,38.00
2022-12-11T16:07:36.418Z,47.75
2022-12-11T16:10:02.906Z,49.75
2022-12-11T16:12:29.346Z,45.75
2022-12-11T16:14:55.806Z,49.00
2022-12-11T16:17:22.295Z,44.00
2022-12-11T16:19:48.722Z,55.20
2022-12-11T16:22:15.950Z,51.33
2022-12-11T16:24:42.545Z,53.80
2022-12-11T16:27:09.922Z,74.75
2022-12-11T16:29:37.754Z,47.40
2022-12-11T16:32:07.055Z,50.25
2022-12-11T16:34:34.051Z,55.75
2022-12-11T16:37:00.894Z,40.20
2022-12-11T16:39:27.700Z,51.00
2022-12-11T16:41:54.293Z,49.50
2022-12-11T16:44:22.122Z,49.20
2022-12-11T16:46:48.554Z,51.00
2022-12-11T16:49:15.437Z,52.20
2022-12-11T16:51:41.992Z,55.80
2022-12-11T16:54:08.670Z,65.25
2022-12-11T16:56:35.329Z,54.00
2022-12-11T16:59:02.119Z,43.75
2022-12-11T17:01:28.558Z,49.00
2022-12-11T17:03:55.149Z,50.00
2022-12-11T17:06:21.734Z,47.50
2022-12-11T17:08:48.315Z,49.00
2022-12-11T17:11:16.571Z,41.00
2022-12-11T17:13:43.541Z,38.00
2022-12-11T17:16:11.618Z,41.60
2022-12-11T17:18:38.428Z,36.80
2022-12-11T17:21:06.732Z,45.75
2022-12-11T17:23:33.390Z,48.00
2022-12-11T17:25:59.888Z,46.50
2022-12-11T17:28:26.539Z,39.50
2022-12-11T17:30:53.118Z,44.00
2022-12-11T17:33:19.604Z,43.00
2022-12-11T17:35:46.058Z,37.25
2022-12-11T17:38:12.641Z,48.00
2022-12-11T17:40:40.084Z,42.20
2022-12-11T17:43:09.325Z,45.40
2022-12-11T17:45:42.666Z,38.25
2022-12-11T17:48:09.189Z,44.50
2022-12-11T17:50:36.515Z,49.00
2022-12-11T17:53:02.987Z,40.40
2022-12-11T17:55:31.238Z,50.00
2022-12-11T17:57:57.754Z,71.50
2022-12-11T18:00:25.410Z,121.50
2022-12-11T18:02:53.965Z,101.75
2022-12-11T18:05:20.489Z,57.75
2022-12-11T18:07:46.943Z,78.50
2022-12-11T18:10:13.448Z,84.20
2022-12-11T18:12:39.936Z,61.00
2022-12-11T18:15:06.634Z,61.25
2022-12-11T18:17:33.189Z,64.25
2022-12-11T18:19:59.650Z,58.50
2022-12-11T18:22:26.073Z,64.50
2022-12-11T18:24:52.552Z,65.75
2022-12-11T18:27:19.042Z,63.00
2022-12-11T18:29:45.566Z,63.00
2022-12-11T18:32:11.981Z,62.00
2022-12-11T18:34:38.410Z,63.40
2022-12-11T18:37:04.965Z,58.75
2022-12-11T18:39:31.538Z,51.00
2022-12-11T18:42:24.335Z,70.25
2022-12-11T18:44:45.536Z,122.25
2022-12-11T18:47:11.979Z,99.67
2022-12-11T18:49:38.528Z,93.00
2022-12-11T18:52:05.232Z,101.00
2022-12-11T18:54:31.793Z,99.25
2022-12-11T18:56:58.343Z,59.00
2022-12-11T18:59:24.908Z,59.25
2022-12-11T19:01:51.385Z,67.00
2022-12-11T19:04:17.881Z,66.75
2022-12-11T19:06:44.423Z,80.00
2022-12-11T19:09:12.149Z,75.50
2022-12-11T19:11:39.582Z,74.00
2022-12-11T19:14:08.930Z,68.00
2022-12-11T19:16:36.821Z,89.00
2022-12-11T19:19:05.215Z,98.60
2022-12-11T19:21:31.812Z,69.20
2022-12-11T19:23:59.387Z,87.00
2022-12-11T19:26:25.963Z,77.75
2022-12-11T19:28:53.542Z,63.75
2022-12-11T19:31:21.921Z,75.25
2022-12-11T19:33:48.756Z,91.00
2022-12-11T19:36:17.485Z,67.50
2022-12-11T19:38:45.298Z,61.20
2022-12-11T19:41:16.820Z,61.50
2022-12-11T19:43:43.452Z,58.75
2022-12-11T19:46:10.504Z,58.00
2022-12-11T19:48:37.805Z,58.50
2022-12-11T19:51:05.293Z,59.00
2022-12-11T19:53:31.885Z,62.50
2022-12-11T19:55:58.389Z,69.25
2022-12-11T19:58:24.821Z,60.75
2022-12-11T20:00:51.329Z,59.80
2022-12-11T20:03:18.010Z,56.50
2022-12-11T20:05:44.469Z,59.40
2022-12-11T20:10:57.445Z,58.20
2022-12-11T20:13:23.889Z,56.75
2022-12-11T20:15:51.572Z,60.00
2022-12-11T20:18:18.904Z,57.20
2022-12-11T20:20:45.543Z,56.00
2022-12-11T20:23:12.014Z,61.00
2022-12-11T20:25:40.073Z,56.50
2022-12-11T20:28:06.904Z,55.50
2022-12-11T20:30:33.766Z,56.00
2022-12-11T20:33:00.240Z,56.00
2022-12-11T20:35:27.368Z,59.00
2022-12-11T20:37:53.832Z,55.67
2022-12-11T20:40:20.275Z,56.75
2022-12-11T20:42:46.701Z,57.00
2022-12-11T20:45:13.480Z,55.25
2022-12-11T20:47:40.133Z,60.25
2022-12-11T20:50:06.754Z,61.20
2022-12-11T20:52:34.338Z,62.40
2022-12-11T20:55:00.763Z,65.00
2022-12-11T20:57:27.173Z,64.50
2022-12-11T20:59:53.663Z,69.00
2022-12-11T21:02:20.449Z,67.20
2022-12-11T21:04:46.911Z,71.20
2022-12-11T21:07:13.433Z,69.50
2022-12-11T21:09:40.029Z,70.00
2022-12-11T21:12:06.867Z,62.00
2022-12-11T21:14:33.956Z,55.40
2022-12-11T21:17:00.561Z,59.00
2022-12-11T21:19:27.201Z,61.25
2022-12-11T21:21:54.169Z,60.80
2022-12-11T21:24:22.269Z,55.25
2022-12-11T21:26:49.320Z,58.00
2022-12-11T21:29:16.606Z,60.60
2022-12-11T21:31:43.224Z,60.00
2022-12-11T21:34:09.729Z,55.25
2022-12-11T21:36:36.176Z,54.20
2022-12-11T21:39:03.213Z,55.75
2022-12-11T21:41:29.690Z,54.50
2022-12-11T21:45:21.155Z,55.00
2022-12-11T21:46:43.279Z,52.60
2022-12-11T21:49:10.155Z,55.00
2022-12-11T21:51:42.570Z,54.00
2022-12-11T21:54:13.572Z,62.50
2022-12-11T21:56:40.569Z,86.25
2022-12-11T21:59:07.321Z,84.75
2022-12-11T22:01:37.189Z,67.25
2022-12-11T22:04:04.987Z,63.00
2022-12-11T22:06:31.839Z,55.00
2022-12-11T22:08:58.420Z,58.20
2022-12-11T22:11:27.525Z,56.40
2022-12-11T22:13:54.087Z,55.00
2022-12-11T22:16:20.649Z,57.25
2022-12-11T22:18:47.146Z,54.75
2022-12-11T22:21:14.138Z,52.20
2022-12-11T22:23:41.431Z,54.25
2022-12-11T22:26:08.700Z,58.00
2022-12-11T22:28:35.246Z,59.80
2022-12-11T22:31:01.727Z,57.20
2022-12-11T22:33:28.220Z,57.00
2022-12-11T22:35:55.491Z,58.25
2022-12-11T22:38:22.102Z,60.50
2022-12-11T22:40:49.958Z,57.00
2022-12-11T22:43:16.596Z,58.00
2022-12-11T22:45:43.328Z,58.50
2022-12-11T22:48:10.058Z,60.40
2022-12-11T22:50:37.423Z,61.60
2022-12-11T22:53:04.494Z,57.00
2022-12-11T22:55:31.393Z,61.20
2022-12-11T22:57:57.912Z,57.25
2022-12-11T23:00:24.526Z,55.00
2022-12-11T23:02:51.116Z,55.00
2022-12-11T23:05:17.685Z,54.00
2022-12-11T23:07:44.128Z,53.60
2022-12-11T23:10:11.028Z,52.40
2022-12-11T23:12:37.512Z,52.60
2022-12-11T23:15:04.372Z,53.50
2022-12-11T23:17:31.058Z,50.00
2022-12-11T23:19:57.529Z,54.25
2022-12-11T23:22:24.058Z,52.50
2022-12-11T23:24:50.573Z,53.00
2022-12-11T23:27:17.085Z,57.40
2022-12-11T23:29:43.608Z,53.50
2022-12-11T23:32:10.108Z,57.00
2022-12-11T23:34:37.680Z,53.80
2022-12-11T23:37:04.226Z,51.25
2022-12-11T23:39:30.702Z,61.00
2022-12-11T23:41:57.175Z,80.50
2022-12-11T23:44:23.745Z,65.40
2022-12-11T23:46:50.265Z,57.40
2022-12-11T23:49:16.781Z,57.40
2022-12-11T23:51:43.732Z,58.75
2022-12-11T23:54:10.341Z,57.50
2022-12-11T23:56:36.750Z,55.60
2022-12-11T23:59:03.324Z,51.00
